Terminal Aerodrome Forecast
Issued by NWS Dodge City, KS

Home | Current Version | Previous Version | Text Only | Print | Product List | Glossary On
Versions: 1 2 3 4 5 6 7 8 9 10 11 12 13 14 15 16 17 18 19 20 21 22 23 24
000
FTUS43 KDDC 231120
TAFDDC
TAF
KDDC 231120Z 2312/2412 18007KT P6SM SCT250
     FM231800 17019G27KT P6SM FEW250
     FM240100 17009KT P6SM FEW250
     FM240600 20011KT P6SM SCT250 WS020/21045KT=

USA.gov is the U.S. government's official web portal to all federal, state and local government web resources and services.